createdAt,value
2024-01-05T00:01:28.687Z,21.38
2024-01-05T00:03:55.385Z,36.70
2024-01-05T00:06:22.208Z,37.00
2024-01-05T00:08:48.927Z,26.05
2024-01-05T00:11:22.010Z,23.02
2024-01-05T00:13:48.970Z,25.92
2024-01-05T00:16:22.286Z,18.98
2024-01-05T00:18:49.596Z,26.35
2024-01-05T00:21:23.414Z,19.95
2024-01-05T00:23:51.192Z,23.60
2024-01-05T00:26:18.478Z,36.75
2024-01-05T00:28:46.215Z,44.38
2024-01-05T00:31:13.855Z,28.20
2024-01-05T00:33:41.508Z,39.65
2024-01-05T00:36:10.001Z,28.70
2024-01-05T00:38:36.983Z,53.92
2024-01-05T00:41:04.287Z,35.95
2024-01-05T00:43:30.836Z,45.40
2024-01-05T00:45:57.750Z,28.05
2024-01-05T00:48:24.490Z,38.58
2024-01-05T00:50:51.133Z,34.80
2024-01-05T00:53:17.730Z,32.97
2024-01-05T00:55:44.308Z,21.05
2024-01-05T00:58:10.889Z,31.02
2024-01-05T01:00:37.461Z,26.60
2024-01-05T01:03:04.648Z,27.17
2024-01-05T01:05:31.295Z,31.67
2024-01-05T01:07:57.953Z,32.80
2024-01-05T01:10:24.539Z,39.95
2024-01-05T01:12:51.629Z,46.78
2024-01-05T01:15:18.428Z,42.35
2024-01-05T01:17:45.236Z,25.52
2024-01-05T01:20:11.927Z,31.58
2024-01-05T01:22:38.768Z,36.97
2024-01-05T01:25:05.798Z,30.15
2024-01-05T01:27:32.578Z,34.97
2024-01-05T01:29:59.516Z,31.98
2024-01-05T01:32:26.297Z,25.77
2024-01-05T01:34:52.970Z,34.80
2024-01-05T01:37:19.567Z,31.25
2024-01-05T01:39:46.151Z,39.78
2024-01-05T01:42:13.002Z,29.27
2024-01-05T01:44:39.569Z,38.95
2024-01-05T01:47:06.486Z,33.75
2024-01-05T01:49:33.143Z,38.60
2024-01-05T01:52:00.119Z,37.00
2024-01-05T01:54:29.656Z,24.33
2024-01-05T01:56:57.444Z,35.10
2024-01-05T01:59:24.112Z,37.42
2024-01-05T02:01:50.745Z,19.98
2024-01-05T02:04:19.574Z,42.33
2024-01-05T02:06:46.694Z,35.47
2024-01-05T02:09:13.853Z,37.20
2024-01-05T02:11:40.549Z,29.13
2024-01-05T02:14:07.085Z,27.10
2024-01-05T02:16:33.601Z,49.22
2024-01-05T02:19:00.288Z,39.10
2024-01-05T02:21:31.393Z,40.83
2024-01-05T02:23:58.163Z,33.00
2024-01-05T02:26:24.800Z,38.58
2024-01-05T02:28:51.388Z,24.38
2024-01-05T02:31:18.076Z,41.30
2024-01-05T02:33:45.031Z,25.10
2024-01-05T02:36:11.935Z,27.08
2024-01-05T02:38:38.520Z,26.42
2024-01-05T02:41:07.141Z,28.55
2024-01-05T02:43:33.722Z,29.90
2024-01-05T02:46:00.327Z,27.20
2024-01-05T02:48:27.042Z,20.35
2024-01-05T02:50:53.769Z,18.63
2024-01-05T02:53:20.344Z,20.35
2024-01-05T02:55:46.859Z,27.45
2024-01-05T02:58:13.405Z,29.02
2024-01-05T03:00:40.090Z,34.05
2024-01-05T03:03:07.007Z,37.25
2024-01-05T03:05:33.761Z,29.15
2024-01-05T03:08:00.646Z,26.63
2024-01-05T03:10:27.245Z,37.60
2024-01-05T03:12:53.869Z,36.60
2024-01-05T03:15:20.493Z,24.90
2024-01-05T03:17:49.094Z,31.35
2024-01-05T03:20:18.407Z,36.92
2024-01-05T03:22:45.191Z,26.85
2024-01-05T03:25:11.699Z,49.28
2024-01-05T03:27:38.333Z,27.50
2024-01-05T03:30:05.556Z,39.72
2024-01-05T03:32:32.360Z,22.27
2024-01-05T03:34:59.038Z,35.65
2024-01-05T03:37:25.712Z,17.60
2024-01-05T03:39:52.303Z,27.13
2024-01-05T03:42:19.148Z,35.90
2024-01-05T03:44:45.844Z,33.05
2024-01-05T03:47:12.418Z,37.90
2024-01-05T03:49:39.248Z,35.97
2024-01-05T03:52:05.944Z,29.73
2024-01-05T03:54:32.626Z,25.52
2024-01-05T03:56:59.245Z,38.13
2024-01-05T03:59:25.972Z,28.83
2024-01-05T04:01:52.546Z,23.30
2024-01-05T04:04:19.359Z,30.42
2024-01-05T04:06:46.749Z,28.90
2024-01-05T04:09:13.780Z,36.63
2024-01-05T04:11:40.753Z,28.20
2024-01-05T04:14:07.992Z,31.67
2024-01-05T04:16:34.785Z,16.52
2024-01-05T04:19:02.374Z,25.75
2024-01-05T04:21:29.146Z,36.50
2024-01-05T04:23:59.144Z,25.45
2024-01-05T04:26:26.281Z,14.70
2024-01-05T04:28:52.898Z,29.92
2024-01-05T04:31:19.475Z,31.08
2024-01-05T04:33:46.204Z,27.42
2024-01-05T04:36:16.614Z,48.17
2024-01-05T04:38:43.930Z,30.45
2024-01-05T04:41:12.346Z,24.73
2024-01-05T04:43:38.897Z,16.55
2024-01-05T04:46:06.656Z,35.08
2024-01-05T04:48:33.489Z,24.35
2024-01-05T04:51:01.208Z,21.42
2024-01-05T04:53:27.860Z,26.30
2024-01-05T04:55:54.440Z,27.90
2024-01-05T04:58:21.336Z,25.02
2024-01-05T05:00:48.008Z,20.50
2024-01-05T05:03:17.374Z,33.72
2024-01-05T05:05:44.071Z,18.83
2024-01-05T05:08:14.188Z,22.20
2024-01-05T05:10:41.070Z,27.23
2024-01-05T05:13:07.658Z,27.05
2024-01-05T05:15:34.444Z,21.25
2024-01-05T05:18:01.325Z,26.15
2024-01-05T05:20:28.142Z,21.30
2024-01-05T05:22:54.697Z,24.27
2024-01-05T05:25:21.316Z,30.05
2024-01-05T05:27:47.876Z,27.73
2024-01-05T05:30:14.717Z,21.58
2024-01-05T05:32:41.369Z,19.23
2024-01-05T05:35:08.309Z,24.20
2024-01-05T05:37:34.884Z,24.52
2024-01-05T05:40:01.508Z,28.15
2024-01-05T05:42:28.180Z,16.95
2024-01-05T05:44:54.894Z,28.60
2024-01-05T05:47:21.829Z,24.45
2024-01-05T05:49:48.470Z,26.20
2024-01-05T05:52:15.614Z,17.73
2024-01-05T05:54:42.272Z,20.73
2024-01-05T05:57:10.259Z,8.95
2024-01-05T05:59:36.910Z,18.90
2024-01-05T06:02:04.126Z,19.38
2024-01-05T06:04:30.782Z,15.52
2024-01-05T06:06:58.053Z,30.90
2024-01-05T06:09:26.592Z,16.27
2024-01-05T06:11:53.245Z,20.85
2024-01-05T06:14:19.877Z,23.67
2024-01-05T06:16:46.522Z,29.63
2024-01-05T06:19:13.429Z,20.25
2024-01-05T06:21:40.073Z,16.65
2024-01-05T06:24:06.675Z,20.02
2024-01-05T06:26:33.254Z,18.50
2024-01-05T06:28:59.799Z,13.85
2024-01-05T06:31:26.709Z,20.90
2024-01-05T06:33:53.290Z,19.67
2024-01-05T06:36:19.972Z,17.38
2024-01-05T06:38:46.524Z,14.70
2024-01-05T06:41:13.123Z,17.50
2024-01-05T06:43:39.649Z,19.80
2024-01-05T06:46:06.227Z,13.40
2024-01-05T06:48:32.987Z,17.15
2024-01-05T06:51:00.921Z,16.02
2024-01-05T06:53:29.934Z,7.82
2024-01-05T06:55:56.560Z,18.45
2024-01-05T06:58:24.920Z,7.45
2024-01-05T07:00:51.763Z,9.63
2024-01-05T07:03:18.527Z,11.25
2024-01-05T07:05:45.341Z,8.35
2024-01-05T07:08:11.984Z,6.93
2024-01-05T07:10:38.532Z,17.00
2024-01-05T07:13:08.153Z,10.70
2024-01-05T07:15:34.984Z,10.80
2024-01-05T07:18:01.731Z,9.48
2024-01-05T07:20:28.441Z,10.07
2024-01-05T07:22:54.976Z,5.13
2024-01-05T07:25:21.501Z,5.68
2024-01-05T07:27:48.063Z,6.72
2024-01-05T07:30:14.769Z,2.88
2024-01-05T07:32:41.735Z,5.72
2024-01-05T07:35:08.670Z,8.80
2024-01-05T07:37:35.336Z,11.70
2024-01-05T07:40:03.803Z,7.18
2024-01-05T07:42:32.030Z,7.47
2024-01-05T07:44:59.145Z,7.40
2024-01-05T07:47:25.795Z,5.13
2024-01-05T07:49:52.425Z,5.95
2024-01-05T07:52:19.067Z,2.88
2024-01-05T07:54:45.857Z,8.18
2024-01-05T07:57:12.509Z,10.25
2024-01-05T07:59:39.148Z,7.65
2024-01-05T08:02:05.961Z,3.25
2024-01-05T08:04:32.709Z,11.23
2024-01-05T08:06:59.745Z,5.60
2024-01-05T08:09:26.584Z,6.07
2024-01-05T08:11:53.218Z,4.10
2024-01-05T08:14:19.823Z,6.63
2024-01-05T08:16:46.429Z,3.35
2024-01-05T08:19:14.664Z,3.55
2024-01-05T08:21:41.632Z,7.45
2024-01-05T08:24:08.561Z,6.75
2024-01-05T08:26:35.216Z,3.17
2024-01-05T08:29:01.787Z,9.13
2024-01-05T08:31:28.479Z,2.92
2024-01-05T08:33:55.236Z,1.33
2024-01-05T08:36:21.908Z,6.57
2024-01-05T08:38:48.548Z,3.35
2024-01-05T08:41:15.162Z,2.45
2024-01-05T08:43:45.056Z,6.03
2024-01-05T08:46:12.155Z,3.08
2024-01-05T08:48:40.363Z,4.63
2024-01-05T08:51:07.064Z,2.97
2024-01-05T08:53:33.661Z,2.72
2024-01-05T08:56:00.201Z,2.30
2024-01-05T08:58:28.177Z,2.72
2024-01-05T09:00:55.113Z,1.75
2024-01-05T09:03:21.867Z,2.13
2024-01-05T09:05:48.563Z,1.20
2024-01-05T09:08:15.220Z,1.27
2024-01-05T09:10:41.849Z,1.20
2024-01-05T09:13:08.675Z,1.38
2024-01-05T09:15:35.444Z,1.85
2024-01-05T09:18:03.235Z,1.55
2024-01-05T09:20:29.895Z,2.65
2024-01-05T09:22:56.465Z,1.85
2024-01-05T09:25:23.482Z,1.08
2024-01-05T09:27:50.162Z,1.88
2024-01-05T09:30:16.961Z,2.95
2024-01-05T09:32:43.716Z,0.75
2024-01-05T09:35:10.335Z,1.58
2024-01-05T09:37:37.345Z,1.67
2024-01-05T09:40:04.419Z,2.95
2024-01-05T09:42:31.121Z,4.47
2024-01-05T09:44:58.296Z,1.90
2024-01-05T09:47:25.020Z,4.20
2024-01-05T09:49:52.993Z,2.65
2024-01-05T09:52:21.265Z,2.15
2024-01-05T09:54:48.116Z,1.65
2024-01-05T09:57:17.402Z,0.70
2024-01-05T09:59:46.921Z,2.78
2024-01-05T10:02:16.897Z,2.58
2024-01-05T10:04:43.562Z,1.23
2024-01-05T10:07:10.251Z,3.90
2024-01-05T10:09:50.379Z,1.90
2024-01-05T10:12:18.957Z,0.75
2024-01-05T10:14:48.762Z,2.42
2024-01-05T10:17:18.667Z,2.78
2024-01-05T10:19:45.352Z,0.68
2024-01-05T10:22:13.886Z,1.33
2024-01-05T10:24:42.265Z,2.40
2024-01-05T10:27:10.516Z,0.60
2024-01-05T10:29:43.845Z,3.35
2024-01-05T10:32:14.784Z,2.97
2024-01-05T10:34:47.949Z,4.53
2024-01-05T10:37:19.005Z,2.55
2024-01-05T10:39:49.872Z,4.75
2024-01-05T10:42:28.249Z,3.53
2024-01-05T10:44:56.915Z,2.63
2024-01-05T10:47:26.827Z,1.10
2024-01-05T10:49:56.408Z,2.47
2024-01-05T10:52:26.181Z,4.43
2024-01-05T10:54:53.663Z,1.67
2024-01-05T10:57:22.045Z,1.70
2024-01-05T10:59:50.385Z,2.50
2024-01-05T11:02:23.325Z,1.60
2024-01-05T11:05:13.972Z,0.73
2024-01-05T11:07:42.259Z,4.07
2024-01-05T11:10:27.140Z,5.97
2024-01-05T11:13:12.936Z,0.80
2024-01-05T11:16:01.219Z,3.90
2024-01-05T11:18:39.941Z,3.50
2024-01-05T11:21:12.801Z,6.72
2024-01-05T11:23:41.706Z,1.05
2024-01-05T11:26:33.583Z,2.30
2024-01-05T11:29:00.206Z,8.07
2024-01-05T11:31:49.894Z,2.65
2024-01-05T11:34:37.130Z,1.45
2024-01-05T11:37:06.034Z,2.03
2024-01-05T11:39:50.861Z,7.03
2024-01-05T11:42:26.720Z,4.95
2024-01-05T11:44:53.577Z,3.70
2024-01-05T11:47:45.398Z,4.10
2024-01-05T11:50:34.643Z,6.72
2024-01-05T11:53:18.256Z,2.05
2024-01-05T11:55:57.347Z,4.18
2024-01-05T11:58:29.525Z,1.48
2024-01-05T12:00:57.664Z,4.78
2024-01-05T12:03:26.862Z,3.70
2024-01-05T12:05:57.747Z,2.72
2024-01-05T12:08:24.762Z,5.57
2024-01-05T12:10:55.703Z,2.53
2024-01-05T12:13:24.612Z,4.75
2024-01-05T12:16:01.008Z,3.50
2024-01-05T12:18:37.061Z,4.68
2024-01-05T12:21:06.977Z,5.80
2024-01-05T12:23:35.592Z,3.55
2024-01-05T12:26:06.965Z,3.22
2024-01-05T12:28:35.091Z,4.75
2024-01-05T12:31:03.380Z,3.92
2024-01-05T12:33:31.842Z,3.15
2024-01-05T12:35:58.976Z,3.13
2024-01-05T12:38:30.214Z,1.63
2024-01-05T12:43:35.937Z,4.60
2024-01-05T12:46:05.086Z,5.90
2024-01-05T12:48:33.199Z,4.05
2024-01-05T12:51:10.233Z,8.15
2024-01-05T12:53:37.450Z,49.45
2024-01-05T12:56:11.621Z,5.32
2024-01-05T12:58:40.315Z,5.22
2024-01-05T13:01:15.918Z,6.53
2024-01-05T13:03:58.229Z,5.55
2024-01-05T13:06:30.750Z,9.88
2024-01-05T13:08:57.514Z,2.85
2024-01-05T13:11:24.504Z,4.65
2024-01-05T13:13:51.700Z,3.92
2024-01-05T13:16:18.375Z,4.40
2024-01-05T13:18:45.144Z,5.38
2024-01-05T13:21:12.141Z,6.30
2024-01-05T13:23:41.331Z,8.02
2024-01-05T13:26:07.895Z,8.93
2024-01-05T13:28:36.801Z,5.20
2024-01-05T13:31:04.766Z,8.82
2024-01-05T13:33:32.544Z,7.53
2024-01-05T13:35:59.358Z,6.70
2024-01-05T13:38:26.012Z,6.43
2024-01-05T13:40:52.570Z,6.63
2024-01-05T13:43:19.155Z,6.15
2024-01-05T13:45:45.824Z,4.32
2024-01-05T13:48:14.498Z,7.35
2024-01-05T13:50:41.288Z,5.63
2024-01-05T13:53:12.148Z,5.00
2024-01-05T13:55:38.957Z,7.30
2024-01-05T13:58:05.593Z,7.28
2024-01-05T14:00:32.255Z,7.80
2024-01-05T14:02:58.908Z,7.80
2024-01-05T14:05:25.547Z,2.05
2024-01-05T14:07:52.162Z,6.97
2024-01-05T14:10:18.711Z,2.50
2024-01-05T14:12:45.435Z,6.32
2024-01-05T14:15:12.128Z,4.15
2024-01-05T14:17:38.692Z,11.38
2024-01-05T14:20:07.287Z,7.57
2024-01-05T14:22:35.389Z,5.10
2024-01-05T14:25:05.629Z,3.67
2024-01-05T14:27:32.331Z,10.68
2024-01-05T14:29:58.909Z,5.13
2024-01-05T14:32:25.494Z,4.35
2024-01-05T14:34:52.217Z,4.75
2024-01-05T14:37:18.778Z,5.68
2024-01-05T14:39:45.429Z,4.38
2024-01-05T14:42:12.007Z,5.28
2024-01-05T14:44:38.653Z,5.35
2024-01-05T14:47:05.244Z,5.97
2024-01-05T14:49:32.285Z,5.63
2024-01-05T14:52:01.095Z,5.25
2024-01-05T14:54:28.365Z,7.90
2024-01-05T14:56:55.387Z,2.97
2024-01-05T14:59:22.244Z,7.57
2024-01-05T15:01:48.995Z,4.97
2024-01-05T15:04:15.813Z,8.05
2024-01-05T15:06:42.534Z,9.70
2024-01-05T15:09:09.596Z,7.75
2024-01-05T15:11:36.267Z,9.45
2024-01-05T15:14:05.106Z,7.65
2024-01-05T15:16:38.615Z,8.35
2024-01-05T15:19:06.353Z,5.93
2024-01-05T15:21:33.193Z,10.25
2024-01-05T15:23:59.888Z,9.05
2024-01-05T15:26:27.180Z,4.13
2024-01-05T15:28:53.719Z,5.57
2024-01-05T15:31:21.581Z,7.30
2024-01-05T15:33:48.693Z,6.95
2024-01-05T15:36:18.490Z,8.68
2024-01-05T15:38:47.932Z,9.93
2024-01-05T15:41:14.558Z,9.50
2024-01-05T15:43:41.177Z,11.48
2024-01-05T15:46:10.293Z,8.15
2024-01-05T15:48:40.705Z,7.07
2024-01-05T15:51:14.850Z,9.15
2024-01-05T15:53:42.503Z,5.05
2024-01-05T15:56:09.737Z,8.93
2024-01-05T15:58:36.350Z,7.88
2024-01-05T16:01:03.501Z,45.63
2024-01-05T16:03:30.212Z,8.90
2024-01-05T16:05:56.838Z,6.20
2024-01-05T16:08:23.460Z,8.80
2024-01-05T16:10:50.085Z,8.45
2024-01-05T16:13:16.692Z,10.07
2024-01-05T16:15:43.368Z,7.78
2024-01-05T16:18:10.479Z,6.43
2024-01-05T16:20:39.862Z,10.90
2024-01-05T16:23:06.396Z,4.78
2024-01-05T16:25:32.965Z,5.93
2024-01-05T16:27:59.602Z,7.60
2024-01-05T16:30:26.268Z,7.65
2024-01-05T16:32:52.976Z,8.40
2024-01-05T16:35:19.654Z,6.47
2024-01-05T16:37:46.330Z,4.50
2024-01-05T16:40:13.086Z,4.90
2024-01-05T16:42:39.830Z,8.98
2024-01-05T16:45:06.931Z,10.25
2024-01-05T16:47:33.627Z,7.65
2024-01-05T16:50:00.386Z,4.60
2024-01-05T16:52:27.212Z,6.22
2024-01-05T16:54:53.790Z,4.82
2024-01-05T16:57:20.802Z,11.02
2024-01-05T16:59:47.609Z,10.38
2024-01-05T17:02:14.134Z,11.05
2024-01-05T17:04:41.028Z,9.18
2024-01-05T17:07:07.824Z,15.82
2024-01-05T17:09:35.828Z,9.50
2024-01-05T17:12:02.617Z,9.85
2024-01-05T17:14:29.245Z,13.07
2024-01-05T17:16:55.795Z,11.95
2024-01-05T17:19:22.439Z,10.77
2024-01-05T17:21:50.074Z,21.35
2024-01-05T17:24:16.891Z,12.35
2024-01-05T17:26:43.580Z,11.48
2024-01-05T17:29:10.302Z,12.73
2024-01-05T17:31:37.019Z,8.57
2024-01-05T17:34:03.701Z,7.82
2024-01-05T17:36:30.723Z,18.77
2024-01-05T17:38:57.881Z,9.10
2024-01-05T17:41:24.451Z,6.30
2024-01-05T17:43:51.050Z,8.85
2024-01-05T17:46:17.607Z,14.15
2024-01-05T17:48:44.449Z,11.73
2024-01-05T17:51:11.190Z,7.28
2024-01-05T17:53:39.463Z,9.18
2024-01-05T17:56:06.625Z,10.25
2024-01-05T17:58:33.251Z,14.98
2024-01-05T18:00:59.957Z,8.27
2024-01-05T18:03:28.107Z,6.35
2024-01-05T18:05:54.840Z,9.65
2024-01-05T18:08:21.384Z,19.63
2024-01-05T18:10:47.972Z,9.48
2024-01-05T18:13:15.353Z,10.35
2024-01-05T18:15:41.968Z,8.07
2024-01-05T18:18:09.083Z,11.27
2024-01-05T18:20:35.749Z,8.98
2024-01-05T18:23:02.422Z,8.45
2024-01-05T18:25:31.265Z,9.40
2024-01-05T18:28:01.226Z,10.37
2024-01-05T18:30:28.059Z,8.15
2024-01-05T18:32:54.712Z,9.00
2024-01-05T18:35:22.229Z,8.13
2024-01-05T18:37:48.791Z,8.40
2024-01-05T18:40:15.566Z,14.18
2024-01-05T18:42:42.369Z,6.18
2024-01-05T18:45:09.522Z,9.45
2024-01-05T18:47:36.163Z,13.15
2024-01-05T18:50:04.121Z,8.32
2024-01-05T18:52:30.824Z,7.53
2024-01-05T18:54:58.680Z,8.20
2024-01-05T18:57:25.465Z,11.52
2024-01-05T18:59:51.996Z,7.57
2024-01-05T19:02:21.438Z,13.95
2024-01-05T19:04:48.103Z,12.10
2024-01-05T19:07:15.466Z,8.52
2024-01-05T19:09:42.122Z,11.55
2024-01-05T19:12:08.854Z,11.93
2024-01-05T19:14:35.478Z,13.25
2024-01-05T19:17:02.034Z,9.75
2024-01-05T19:19:28.758Z,13.48
2024-01-05T19:21:57.605Z,11.10
2024-01-05T19:24:25.672Z,12.27
2024-01-05T19:26:52.559Z,11.20
2024-01-05T19:29:19.193Z,11.48
2024-01-05T19:31:45.808Z,10.48
2024-01-05T19:34:13.081Z,10.63
2024-01-05T19:36:46.741Z,9.88
2024-01-05T19:39:13.954Z,12.50
2024-01-05T19:41:48.077Z,10.52
2024-01-05T19:44:18.499Z,13.40
2024-01-05T19:46:45.449Z,11.70
2024-01-05T19:49:12.213Z,12.07
2024-01-05T19:51:48.880Z,15.02
2024-01-05T19:54:17.561Z,13.02
2024-01-05T19:56:45.320Z,10.43
2024-01-05T19:59:12.168Z,13.15
2024-01-05T20:01:41.110Z,18.20
2024-01-05T20:04:07.785Z,14.63
2024-01-05T20:06:37.212Z,14.25
2024-01-05T20:09:06.127Z,16.45
2024-01-05T20:11:32.887Z,14.48
2024-01-05T20:13:59.898Z,20.05
2024-01-05T20:16:26.458Z,15.13
2024-01-05T20:18:53.231Z,14.50
2024-01-05T20:21:20.058Z,18.42
2024-01-05T20:23:46.748Z,17.23
2024-01-05T20:26:22.805Z,16.75
2024-01-05T20:28:52.332Z,17.83
2024-01-05T20:31:20.153Z,14.20
2024-01-05T20:33:47.135Z,16.15
2024-01-05T20:36:19.329Z,14.38
2024-01-05T20:38:46.264Z,17.65
2024-01-05T20:41:12.988Z,19.02
2024-01-05T20:43:42.500Z,16.83
2024-01-05T20:46:08.994Z,16.48
2024-01-05T20:48:37.430Z,17.45
2024-01-05T20:51:04.268Z,44.50
2024-01-05T20:53:30.908Z,24.10
2024-01-05T20:55:57.513Z,20.23
2024-01-05T20:58:24.082Z,18.88
2024-01-05T21:00:51.665Z,19.55
2024-01-05T21:03:19.047Z,19.13
2024-01-05T21:05:45.902Z,21.58
2024-01-05T21:08:14.010Z,21.58
2024-01-05T21:10:40.707Z,21.77
2024-01-05T21:13:07.354Z,20.88
2024-01-05T21:15:34.091Z,23.70
2024-01-05T21:18:00.807Z,26.17
2024-01-05T21:20:27.416Z,21.20
2024-01-05T21:22:54.288Z,19.83
2024-01-05T21:25:21.498Z,18.98
2024-01-05T21:27:49.168Z,25.70
2024-01-05T21:30:17.683Z,22.90
2024-01-05T21:32:44.283Z,22.60
2024-01-05T21:35:10.907Z,22.33
2024-01-05T21:37:37.475Z,23.30
2024-01-05T21:40:06.159Z,27.98
2024-01-05T21:42:32.767Z,25.48
2024-01-05T21:44:59.483Z,23.17
2024-01-05T21:47:26.101Z,25.50
2024-01-05T21:49:52.975Z,27.30
2024-01-05T21:52:19.595Z,23.85
2024-01-05T21:54:46.876Z,24.35
2024-01-05T21:57:13.603Z,24.58
2024-01-05T21:59:40.264Z,24.55
2024-01-05T22:02:07.021Z,26.52
2024-01-05T22:04:34.713Z,25.48
2024-01-05T22:07:04.437Z,27.60
2024-01-05T22:09:31.176Z,27.65
2024-01-05T22:11:57.996Z,30.65
2024-01-05T22:14:24.640Z,28.02
2024-01-05T22:16:53.662Z,35.67
2024-01-05T22:19:21.643Z,38.55
2024-01-05T22:21:48.410Z,36.03
2024-01-05T22:24:15.076Z,30.92
2024-01-05T22:26:41.620Z,35.35
2024-01-05T22:29:08.220Z,34.60
2024-01-05T22:31:34.965Z,32.78
2024-01-05T22:34:02.069Z,38.72
2024-01-05T22:36:29.056Z,36.42
2024-01-05T22:38:55.701Z,31.50
2024-01-05T22:41:23.739Z,34.55
2024-01-05T22:43:52.094Z,37.20
2024-01-05T22:46:18.746Z,28.45
2024-01-05T22:48:47.412Z,38.58
2024-01-05T22:51:25.139Z,33.85
2024-01-05T22:53:51.766Z,38.15
2024-01-05T22:56:18.326Z,33.28
2024-01-05T22:58:45.385Z,37.08
2024-01-05T23:01:19.530Z,38.83
2024-01-05T23:03:47.950Z,41.38
2024-01-05T23:06:15.012Z,38.22
2024-01-05T23:08:41.849Z,42.97
2024-01-05T23:11:09.554Z,43.78
2024-01-05T23:13:36.394Z,40.47
2024-01-05T23:16:03.317Z,41.83
2024-01-05T23:18:30.465Z,41.47
2024-01-05T23:20:57.043Z,41.10
2024-01-05T23:23:23.648Z,41.60
2024-01-05T23:25:50.196Z,46.10
2024-01-05T23:28:16.957Z,37.90
2024-01-05T23:30:43.599Z,42.03
2024-01-05T23:33:10.456Z,47.65
2024-01-05T23:35:37.106Z,51.05
2024-01-05T23:38:03.806Z,46.50
2024-01-05T23:40:30.359Z,43.85
2024-01-05T23:42:56.892Z,43.90
2024-01-05T23:45:23.449Z,39.70
2024-01-05T23:47:50.065Z,47.65
2024-01-05T23:50:17.008Z,46.78
2024-01-05T23:52:43.577Z,47.63
2024-01-05T23:55:10.101Z,41.83
2024-01-05T23:57:36.706Z,43.20
